createdAt,value
2016-09-10T00:00:40.884Z,0
2016-09-10T00:01:40.861Z,0
2016-09-10T00:02:40.897Z,0
2016-09-10T00:03:40.871Z,0
2016-09-10T00:04:41.007Z,0
2016-09-10T00:05:40.841Z,0
2016-09-10T00:06:40.861Z,0
2016-09-10T00:07:40.843Z,0
2016-09-10T00:08:40.888Z,0
2016-09-10T00:09:40.859Z,0
2016-09-10T00:10:41.088Z,0
2016-09-10T00:11:41.021Z,0
2016-09-10T00:12:41.666Z,0
2016-09-10T00:13:41.233Z,0
2016-09-10T00:14:41.507Z,0
2016-09-10T00:15:41.056Z,0
2016-09-10T00:16:40.964Z,0
2016-09-10T00:17:41.055Z,0
2016-09-10T00:18:41.023Z,0
2016-09-10T00:19:41.255Z,0
2016-09-10T00:20:41.024Z,0
2016-09-10T00:21:40.937Z,0
2016-09-10T00:22:41.082Z,0
2016-09-10T00:23:40.939Z,0
2016-09-10T00:24:41.008Z,0
2016-09-10T00:25:41.243Z,0
2016-09-10T00:26:41.855Z,0
2016-09-10T00:27:42.055Z,0
2016-09-10T00:28:41.258Z,0
2016-09-10T00:29:40.981Z,0
2016-09-10T00:30:41.058Z,0
2016-09-10T00:31:40.999Z,0
2016-09-10T00:32:41.014Z,0
2016-09-10T00:33:41.068Z,0
2016-09-10T00:34:41.245Z,0
2016-09-10T00:35:41.400Z,0
2016-09-10T00:36:41.424Z,0
2016-09-10T00:37:40.954Z,0
2016-09-10T00:38:41.166Z,0
2016-09-10T00:39:41.017Z,0
2016-09-10T00:40:41.403Z,0
2016-09-10T00:41:41.295Z,0
2016-09-10T00:42:41.010Z,0
2016-09-10T00:43:41.207Z,0
2016-09-10T00:44:41.129Z,0
2016-09-10T00:45:42.587Z,0
2016-09-10T00:46:41.791Z,0
2016-09-10T00:47:41.779Z,0
2016-09-10T00:48:41.732Z,0
2016-09-10T00:49:41.827Z,0
2016-09-10T00:50:42.020Z,0
2016-09-10T00:51:41.102Z,0
2016-09-10T00:52:41.656Z,0
2016-09-10T00:53:41.031Z,0
2016-09-10T00:54:41.033Z,0
2016-09-10T00:55:40.978Z,0
2016-09-10T00:56:41.179Z,0
2016-09-10T00:57:40.982Z,0
2016-09-10T00:58:41.120Z,0
2016-09-10T00:59:41.173Z,0
2016-09-10T01:00:40.974Z,0
2016-09-10T01:01:40.994Z,0
2016-09-10T01:02:41.450Z,0
2016-09-10T01:03:41.128Z,0
2016-09-10T01:04:41.547Z,0
2016-09-10T01:05:41.117Z,0
2016-09-10T01:06:41.175Z,0
2016-09-10T01:07:41.045Z,0
2016-09-10T01:08:41.090Z,0
2016-09-10T01:09:41.020Z,0
2016-09-10T01:10:41.045Z,0
2016-09-10T01:11:41.033Z,0
2016-09-10T01:12:41.339Z,0
2016-09-10T01:13:41.536Z,0
2016-09-10T01:14:41.199Z,0
2016-09-10T01:15:40.972Z,0
2016-09-10T01:16:41.068Z,0
2016-09-10T01:17:41.649Z,0
2016-09-10T01:18:41.120Z,0
2016-09-10T01:19:41.093Z,0
2016-09-10T01:20:41.078Z,0
2016-09-10T01:21:41.272Z,0
2016-09-10T01:22:41.378Z,0
2016-09-10T01:23:41.320Z,0
2016-09-10T01:24:41.342Z,0
2016-09-10T01:25:41.246Z,0
2016-09-10T01:26:41.203Z,0
2016-09-10T01:27:41.827Z,0
2016-09-10T01:28:41.296Z,0
2016-09-10T01:29:41.207Z,0
2016-09-10T01:30:41.284Z,0
2016-09-10T01:31:41.011Z,0
2016-09-10T01:32:41.101Z,0
2016-09-10T01:33:41.162Z,0
2016-09-10T01:34:41.074Z,0
2016-09-10T01:35:41.012Z,0
2016-09-10T01:36:41.416Z,0
2016-09-10T01:37:41.026Z,0
2016-09-10T01:38:41.462Z,0
2016-09-10T01:39:41.141Z,0
2016-09-10T01:40:42.153Z,0
2016-09-10T01:41:41.126Z,0
2016-09-10T01:42:41.187Z,0
2016-09-10T01:43:41.243Z,0
2016-09-10T01:44:41.113Z,0
2016-09-10T01:45:41.044Z,0
2016-09-10T01:46:42.281Z,0
2016-09-10T01:47:42.293Z,0
2016-09-10T01:48:41.034Z,0
2016-09-10T01:49:41.773Z,0
2016-09-10T01:50:41.692Z,0
2016-09-10T01:51:41.876Z,0
2016-09-10T01:52:43.256Z,0
2016-09-10T01:53:41.142Z,0
2016-09-10T01:54:42.046Z,0
2016-09-10T01:55:41.051Z,0
2016-09-10T01:56:41.528Z,0
2016-09-10T01:57:41.171Z,0
2016-09-10T01:58:41.329Z,0
2016-09-10T01:59:41.633Z,0
2016-09-10T02:00:41.170Z,0
2016-09-10T02:01:41.201Z,0
2016-09-10T02:02:41.255Z,0
2016-09-10T02:03:41.089Z,0
2016-09-10T02:04:41.324Z,0
2016-09-10T02:05:41.172Z,0
2016-09-10T02:06:41.140Z,0
2016-09-10T02:07:41.128Z,0
2016-09-10T02:08:41.481Z,0
2016-09-10T02:09:42.243Z,0
2016-09-10T02:10:41.407Z,0
2016-09-10T02:11:41.114Z,0
2016-09-10T02:12:41.158Z,0
2016-09-10T02:13:41.754Z,0
2016-09-10T02:14:41.186Z,0
2016-09-10T02:15:41.045Z,0
2016-09-10T02:16:41.064Z,0
2016-09-10T02:17:42.243Z,0
2016-09-10T02:18:41.209Z,0
2016-09-10T02:19:41.103Z,0
2016-09-10T02:20:41.167Z,0
2016-09-10T02:21:41.112Z,0
2016-09-10T02:22:41.138Z,0
2016-09-10T02:23:41.435Z,0
2016-09-10T02:24:41.134Z,0
2016-09-10T02:25:41.031Z,0
2016-09-10T02:26:41.166Z,0
2016-09-10T02:27:41.021Z,0
2016-09-10T02:28:41.060Z,0
2016-09-10T02:29:41.732Z,0
2016-09-10T02:30:41.041Z,0
2016-09-10T02:31:41.048Z,0
2016-09-10T02:32:41.082Z,0
2016-09-10T02:33:41.112Z,0
2016-09-10T02:34:41.178Z,0
2016-09-10T02:35:41.032Z,0
2016-09-10T02:36:41.144Z,0
2016-09-10T02:37:41.111Z,0
2016-09-10T02:38:41.081Z,0
2016-09-10T02:39:41.036Z,0
2016-09-10T02:40:41.679Z,0
2016-09-10T02:41:41.468Z,0
2016-09-10T02:42:41.136Z,0
2016-09-10T02:43:41.163Z,0
2016-09-10T02:44:41.039Z,0
2016-09-10T02:45:41.150Z,0
2016-09-10T02:46:41.164Z,0
2016-09-10T02:47:41.206Z,0
2016-09-10T02:48:41.050Z,0
2016-09-10T02:49:41.140Z,0
2016-09-10T02:50:41.139Z,0
2016-09-10T02:51:41.132Z,0
2016-09-10T02:52:41.066Z,0
2016-09-10T02:53:41.674Z,0
2016-09-10T02:54:41.085Z,0
2016-09-10T02:55:41.275Z,0
2016-09-10T02:56:41.093Z,0
2016-09-10T02:57:41.129Z,0
2016-09-10T02:58:41.071Z,0
2016-09-10T02:59:41.262Z,0
2016-09-10T03:00:41.091Z,0
2016-09-10T03:01:41.141Z,0
2016-09-10T03:02:41.048Z,0
2016-09-10T03:03:41.115Z,0
2016-09-10T03:04:41.058Z,0
2016-09-10T03:05:41.316Z,0
2016-09-10T03:06:41.110Z,0
2016-09-10T03:07:41.369Z,0
2016-09-10T03:08:41.153Z,0
2016-09-10T03:09:41.090Z,0
2016-09-10T03:10:41.054Z,0
2016-09-10T03:11:42.296Z,0
2016-09-10T03:12:41.474Z,0
2016-09-10T03:13:41.353Z,0
2016-09-10T03:14:41.096Z,0
2016-09-10T03:15:41.266Z,0
2016-09-10T03:16:41.337Z,0
2016-09-10T03:17:41.804Z,0
2016-09-10T03:18:41.735Z,0
2016-09-10T03:19:42.465Z,0
2016-09-10T03:20:41.945Z,0
2016-09-10T03:21:42.564Z,0
2016-09-10T03:22:41.851Z,0
2016-09-10T03:23:41.132Z,0
2016-09-10T03:24:41.708Z,0
2016-09-10T03:25:41.139Z,0
2016-09-10T03:26:41.401Z,0
2016-09-10T03:27:41.078Z,0
2016-09-10T03:28:41.111Z,0
2016-09-10T03:29:41.128Z,0
2016-09-10T03:30:41.255Z,0
2016-09-10T03:31:41.141Z,0
2016-09-10T03:32:41.291Z,0
2016-09-10T03:33:42.117Z,0
2016-09-10T03:34:41.239Z,0
2016-09-10T03:35:41.175Z,0
2016-09-10T03:36:41.188Z,0
2016-09-10T03:37:41.170Z,0
2016-09-10T03:38:41.159Z,0
2016-09-10T03:39:41.151Z,0
2016-09-10T03:40:41.144Z,0
2016-09-10T03:41:41.202Z,0
2016-09-10T03:42:41.110Z,0
2016-09-10T03:43:41.145Z,0
2016-09-10T03:44:41.129Z,0
2016-09-10T03:45:41.118Z,0
2016-09-10T03:46:41.282Z,0
2016-09-10T03:47:42.175Z,0
2016-09-10T03:48:41.177Z,0
2016-09-10T03:49:41.215Z,0
2016-09-10T03:50:41.353Z,0
2016-09-10T03:51:41.183Z,0
2016-09-10T03:52:41.563Z,0
2016-09-10T03:53:41.271Z,0
2016-09-10T03:54:41.174Z,0
2016-09-10T03:55:41.192Z,0
2016-09-10T03:56:41.283Z,0
2016-09-10T03:57:41.247Z,0
2016-09-10T03:58:41.305Z,0
2016-09-10T03:59:41.197Z,0
2016-09-10T04:00:41.215Z,0
2016-09-10T04:01:41.112Z,0
2016-09-10T04:02:41.401Z,0
2016-09-10T04:03:41.340Z,0
2016-09-10T04:04:41.200Z,0
2016-09-10T04:05:41.319Z,0
2016-09-10T04:06:41.224Z,0
2016-09-10T04:07:41.124Z,0
2016-09-10T04:08:41.191Z,0
2016-09-10T04:09:41.212Z,0
2016-09-10T04:10:41.138Z,0
2016-09-10T04:11:41.218Z,0
2016-09-10T04:12:41.190Z,0
2016-09-10T04:13:41.433Z,0
2016-09-10T04:14:41.243Z,0
2016-09-10T04:15:41.155Z,0
2016-09-10T04:16:41.351Z,0
2016-09-10T04:17:41.283Z,0
2016-09-10T04:18:41.324Z,0
2016-09-10T04:19:41.194Z,0
2016-09-10T04:20:41.261Z,0
2016-09-10T04:21:41.397Z,4
2016-09-10T04:22:41.300Z,4
2016-09-10T04:23:41.683Z,0
2016-09-10T04:24:41.158Z,4
2016-09-10T04:25:41.386Z,4
2016-09-10T04:26:41.209Z,4
2016-09-10T04:27:41.352Z,4
2016-09-10T04:28:41.258Z,4
2016-09-10T04:29:41.149Z,8
2016-09-10T04:30:41.707Z,8
2016-09-10T04:31:41.585Z,12
2016-09-10T04:32:41.482Z,12
2016-09-10T04:33:41.378Z,12
2016-09-10T04:34:41.202Z,20
2016-09-10T04:35:41.371Z,20
2016-09-10T04:36:41.301Z,24
2016-09-10T04:37:41.198Z,28
2016-09-10T04:38:41.267Z,36
2016-09-10T04:39:41.264Z,40
2016-09-10T04:40:41.266Z,44
2016-09-10T04:41:41.488Z,52
2016-09-10T04:42:41.196Z,60
2016-09-10T04:43:41.170Z,68
2016-09-10T04:44:41.169Z,76
2016-09-10T04:45:41.418Z,88
2016-09-10T04:46:41.276Z,104
2016-09-10T04:47:41.665Z,116
2016-09-10T04:48:41.677Z,128
2016-09-10T04:49:41.361Z,144
2016-09-10T04:50:41.427Z,160
2016-09-10T04:51:41.266Z,176
2016-09-10T04:52:41.225Z,196
2016-09-10T04:53:41.260Z,216
2016-09-10T04:54:42.097Z,236
2016-09-10T04:55:41.226Z,256
2016-09-10T04:56:41.365Z,280
2016-09-10T04:57:41.718Z,304
2016-09-10T04:58:41.182Z,328
2016-09-10T04:59:41.586Z,352
2016-09-10T05:00:41.397Z,376
2016-09-10T05:01:41.158Z,408
2016-09-10T05:02:41.375Z,436
2016-09-10T05:03:41.465Z,468
2016-09-10T05:04:41.213Z,504
2016-09-10T05:05:41.213Z,540
2016-09-10T05:06:41.764Z,568
2016-09-10T05:07:41.135Z,608
2016-09-10T05:08:41.377Z,640
2016-09-10T05:09:41.284Z,680
2016-09-10T05:10:41.189Z,716
2016-09-10T05:11:41.224Z,756
2016-09-10T05:12:41.284Z,796
2016-09-10T05:13:41.199Z,836
2016-09-10T05:14:41.290Z,884
2016-09-10T05:15:41.294Z,924
2016-09-10T05:16:41.334Z,968
2016-09-10T05:17:43.447Z,1020
2016-09-10T05:18:41.331Z,1068
2016-09-10T05:19:42.675Z,1116
2016-09-10T05:20:42.065Z,1168
2016-09-10T05:21:42.200Z,1216
2016-09-10T05:22:41.551Z,1268
2016-09-10T05:23:42.437Z,1324
2016-09-10T05:24:41.209Z,1376
2016-09-10T05:25:41.831Z,1432
2016-09-10T05:26:41.218Z,1488
2016-09-10T05:27:41.407Z,1548
2016-09-10T05:28:41.312Z,1612
2016-09-10T05:29:41.452Z,1680
2016-09-10T05:30:41.399Z,1744
2016-09-10T05:31:41.407Z,1804
2016-09-10T05:32:41.324Z,1868
2016-09-10T05:33:41.714Z,1944
2016-09-10T05:34:41.262Z,2020
2016-09-10T05:35:42.114Z,2092
2016-09-10T05:36:41.387Z,2172
2016-09-10T05:37:41.267Z,2244
2016-09-10T05:38:41.485Z,2320
2016-09-10T05:39:41.390Z,2396
2016-09-10T05:40:41.459Z,2472
2016-09-10T05:41:41.609Z,2548
2016-09-10T05:42:42.849Z,2624
2016-09-10T05:43:41.847Z,2700
2016-09-10T05:44:41.704Z,2776
2016-09-10T05:45:41.227Z,2852
2016-09-10T05:46:41.187Z,2924
2016-09-10T05:47:41.358Z,2996
2016-09-10T05:48:41.397Z,3064
2016-09-10T05:49:41.406Z,3132
2016-09-10T05:50:41.308Z,3192
2016-09-10T05:51:41.271Z,3252
2016-09-10T05:52:41.290Z,3312
2016-09-10T05:53:41.537Z,3372
2016-09-10T05:54:41.288Z,3436
2016-09-10T05:55:41.451Z,3492
2016-09-10T05:56:42.537Z,3548
2016-09-10T05:57:41.874Z,3600
2016-09-10T05:58:41.457Z,3652
2016-09-10T05:59:41.292Z,3704
2016-09-10T06:00:41.342Z,3756
2016-09-10T06:01:41.529Z,3804
2016-09-10T06:02:41.536Z,3856
2016-09-10T06:03:41.351Z,3916
2016-09-10T06:04:41.861Z,3972
2016-09-10T06:05:41.411Z,4040
2016-09-10T06:06:41.268Z,4100
2016-09-10T06:07:41.330Z,4160
2016-09-10T06:08:41.315Z,4220
2016-09-10T06:09:41.709Z,4288
2016-09-10T06:10:41.516Z,4348
2016-09-10T06:11:41.303Z,4416
2016-09-10T06:12:41.329Z,4472
2016-09-10T06:13:41.680Z,4528
2016-09-10T06:14:41.367Z,4580
2016-09-10T06:15:41.317Z,4620
2016-09-10T06:16:41.291Z,4660
2016-09-10T06:17:41.746Z,4704
2016-09-10T06:18:41.286Z,4748
2016-09-10T06:19:42.271Z,4780
2016-09-10T06:20:41.859Z,4812
2016-09-10T06:21:41.662Z,4848
2016-09-10T06:22:41.232Z,4868
2016-09-10T06:23:41.865Z,4892
2016-09-10T06:24:42.381Z,4928
2016-09-10T06:25:41.242Z,4976
2016-09-10T06:26:41.258Z,5048
2016-09-10T06:27:41.254Z,5124
2016-09-10T06:28:41.542Z,5200
2016-09-10T06:29:41.488Z,5264
2016-09-10T06:30:41.325Z,5316
2016-09-10T06:31:41.252Z,5356
2016-09-10T06:32:41.563Z,5400
2016-09-10T06:33:41.326Z,5448
2016-09-10T06:34:41.319Z,5492
2016-09-10T06:35:41.308Z,5532
2016-09-10T06:36:41.322Z,5580
2016-09-10T06:37:41.498Z,5636
2016-09-10T06:38:41.335Z,5692
2016-09-10T06:39:41.719Z,5736
2016-09-10T06:40:41.268Z,5764
2016-09-10T06:41:41.370Z,5788
2016-09-10T06:42:41.349Z,5808
2016-09-10T06:43:41.399Z,5828
2016-09-10T06:44:41.476Z,5836
2016-09-10T06:45:41.353Z,5824
2016-09-10T06:46:42.375Z,5808
2016-09-10T06:47:41.451Z,5816
2016-09-10T06:48:41.246Z,5812
2016-09-10T06:49:41.495Z,5808
2016-09-10T06:50:41.299Z,5820
2016-09-10T06:51:41.310Z,5824
2016-09-10T06:52:41.397Z,5840
2016-09-10T06:53:41.435Z,5860
2016-09-10T06:54:41.304Z,5868
2016-09-10T06:55:41.331Z,5912
2016-09-10T06:56:41.416Z,5940
2016-09-10T06:57:41.538Z,5976
2016-09-10T06:58:41.315Z,5992
2016-09-10T06:59:41.548Z,5988
2016-09-10T07:00:41.335Z,5976
2016-09-10T07:01:41.362Z,5972
2016-09-10T07:02:41.352Z,5968
2016-09-10T07:03:41.487Z,5956
2016-09-10T07:04:41.453Z,5960
2016-09-10T07:05:41.503Z,5976
2016-09-10T07:06:41.377Z,5992
2016-09-10T07:07:41.542Z,6016
2016-09-10T07:08:41.742Z,6048
2016-09-10T07:09:41.393Z,6068
2016-09-10T07:10:41.394Z,6092
2016-09-10T07:11:41.379Z,6108
2016-09-10T07:12:41.377Z,6112
2016-09-10T07:13:41.395Z,6108
2016-09-10T07:14:41.608Z,6120
2016-09-10T07:15:41.286Z,6136
2016-09-10T07:16:41.546Z,6144
2016-09-10T07:17:41.423Z,6160
2016-09-10T07:18:41.609Z,6180
2016-09-10T07:19:41.303Z,6188
2016-09-10T07:20:41.491Z,6192
2016-09-10T07:21:42.097Z,6212
2016-09-10T07:22:41.538Z,6220
2016-09-10T07:23:41.904Z,6228
2016-09-10T07:24:41.547Z,6232
2016-09-10T07:25:41.374Z,6220
2016-09-10T07:26:41.633Z,6216
2016-09-10T07:27:41.546Z,6224
2016-09-10T07:28:42.744Z,6232
2016-09-10T07:29:41.372Z,6240
2016-09-10T07:30:41.426Z,6240
2016-09-10T07:31:42.038Z,6240
2016-09-10T07:32:41.630Z,6240
2016-09-10T07:33:41.352Z,6232
2016-09-10T07:34:41.293Z,6224
2016-09-10T07:35:41.519Z,6208
2016-09-10T07:36:41.377Z,6212
2016-09-10T07:37:41.402Z,6204
2016-09-10T07:38:41.348Z,6200
2016-09-10T07:39:41.632Z,6208
2016-09-10T07:40:41.318Z,6192
2016-09-10T07:41:41.513Z,6168
2016-09-10T07:42:42.049Z,6148
2016-09-10T07:43:42.251Z,6144
2016-09-10T07:44:41.942Z,6136
2016-09-10T07:45:41.848Z,6144
2016-09-10T07:46:42.135Z,6156
2016-09-10T07:47:41.831Z,6152
2016-09-10T07:48:41.805Z,6148
2016-09-10T07:49:41.378Z,6136
2016-09-10T07:50:41.602Z,6140
2016-09-10T07:51:41.319Z,6144
2016-09-10T07:52:41.607Z,6140
2016-09-10T07:53:41.953Z,6140
2016-09-10T07:54:41.388Z,6148
2016-09-10T07:55:41.382Z,6156
2016-09-10T07:56:41.589Z,6148
2016-09-10T07:57:42.357Z,6140
2016-09-10T07:58:41.583Z,6136
2016-09-10T07:59:41.407Z,6128
2016-09-10T08:00:41.545Z,6108
2016-09-10T08:01:41.484Z,6092
2016-09-10T08:02:41.910Z,6088
2016-09-10T08:03:41.717Z,6088
2016-09-10T08:04:41.361Z,6088
2016-09-10T08:05:41.341Z,6080
2016-09-10T08:06:41.561Z,6076
2016-09-10T08:07:41.645Z,6060
2016-09-10T08:08:41.754Z,6036
2016-09-10T08:10:20.180Z,6020
2016-09-10T08:10:42.498Z,6020
2016-09-10T08:12:15.173Z,5996
2016-09-10T08:12:42.002Z,5992
2016-09-10T08:13:52.810Z,5992
2016-09-10T08:14:52.892Z,5992
2016-09-10T08:15:43.640Z,5984
2016-09-10T08:16:41.382Z,5988
2016-09-10T08:17:41.807Z,6000
2016-09-10T08:18:41.450Z,6012
2016-09-10T08:19:41.597Z,6012
2016-09-10T08:20:41.413Z,6004
2016-09-10T08:21:41.883Z,5992
2016-09-10T08:22:41.773Z,5964
2016-09-10T08:23:41.545Z,5948
2016-09-10T08:24:41.455Z,5928
2016-09-10T08:25:41.375Z,5900
2016-09-10T08:26:41.563Z,5888
2016-09-10T08:27:41.555Z,5872
2016-09-10T08:28:41.896Z,5856
2016-09-10T08:29:41.691Z,5836
2016-09-10T08:30:41.449Z,5816
2016-09-10T08:31:41.839Z,5796
2016-09-10T08:32:41.501Z,5784
2016-09-10T08:33:41.460Z,5780
2016-09-10T08:34:41.496Z,5776
2016-09-10T08:35:41.830Z,5772
2016-09-10T08:36:41.882Z,5760
2016-09-10T08:37:41.346Z,5744
2016-09-10T08:38:41.627Z,5728
2016-09-10T08:39:41.478Z,5716
2016-09-10T08:40:41.714Z,5708
2016-09-10T08:41:42.235Z,5688
2016-09-10T08:42:41.535Z,5684
2016-09-10T08:43:41.415Z,5680
2016-09-10T08:44:41.578Z,5684
2016-09-10T08:45:42.032Z,5684
2016-09-10T08:46:41.785Z,5688
2016-09-10T08:47:42.048Z,5676
2016-09-10T08:48:41.786Z,5668
2016-09-10T08:49:41.968Z,5668
2016-09-10T08:50:42.347Z,5660
2016-09-10T08:51:41.507Z,5644
2016-09-10T08:52:42.107Z,5636
2016-09-10T08:53:41.608Z,5612
2016-09-10T08:55:27.242Z,5588
2016-09-10T08:56:23.573Z,5572
2016-09-10T08:57:09.443Z,5560
2016-09-10T08:57:47.553Z,5552
2016-09-10T08:58:47.340Z,5544
2016-09-10T09:00:38.660Z,5528
2016-09-10T09:02:04.202Z,5488
2016-09-10T09:03:30.046Z,5448
2016-09-10T09:04:55.336Z,5424
2016-09-10T09:06:19.312Z,5408
2016-09-10T09:07:42.853Z,5392
2016-09-10T09:08:50.948Z,5364
2016-09-10T09:10:04.041Z,5340
2016-09-10T09:10:49.542Z,5328
2016-09-10T09:12:18.967Z,5300
2016-09-10T09:13:14.328Z,5292
2016-09-10T09:13:58.735Z,5280
2016-09-10T09:14:40.108Z,5272
2016-09-10T09:15:39.310Z,5248
2016-09-10T09:16:39.534Z,5228
2016-09-10T09:17:41.051Z,5212
2016-09-10T09:18:39.877Z,5216
2016-09-10T09:19:39.500Z,5224
2016-09-10T09:20:39.360Z,5240
2016-09-10T09:21:39.833Z,5252
2016-09-10T09:22:39.308Z,5256
2016-09-10T09:23:39.498Z,5248
2016-09-10T09:24:39.436Z,5244
2016-09-10T09:25:39.665Z,5236
2016-09-10T09:26:39.579Z,5224
2016-09-10T09:27:39.768Z,5212
2016-09-10T09:28:39.323Z,5200
2016-09-10T09:29:39.651Z,5188
2016-09-10T09:30:39.395Z,5172
2016-09-10T09:31:39.311Z,5164
2016-09-10T09:32:39.463Z,5152
2016-09-10T09:33:39.369Z,5124
2016-09-10T09:34:39.599Z,5092
2016-09-10T09:35:39.380Z,5064
2016-09-10T09:36:39.359Z,5052
2016-09-10T09:37:39.379Z,5048
2016-09-10T09:38:39.514Z,5048
2016-09-10T09:39:39.483Z,5032
2016-09-10T09:40:39.490Z,5020
2016-09-10T09:41:39.305Z,5024
2016-09-10T09:42:39.359Z,5028
2016-09-10T09:43:39.948Z,5044
2016-09-10T09:44:39.486Z,5044
2016-09-10T09:45:39.530Z,5048
2016-09-10T09:46:39.507Z,5044
2016-09-10T09:47:39.790Z,5040
2016-09-10T09:48:39.622Z,5048
2016-09-10T09:49:39.417Z,5044
2016-09-10T09:50:39.386Z,5060
2016-09-10T09:51:39.324Z,5072
2016-09-10T09:52:39.335Z,5076
2016-09-10T09:53:39.511Z,5068
2016-09-10T09:54:39.480Z,5060
2016-09-10T09:55:39.359Z,5044
2016-09-10T09:56:39.334Z,5036
2016-09-10T09:57:39.616Z,5028
2016-09-10T09:58:39.369Z,5024
2016-09-10T09:59:39.303Z,5012
2016-09-10T10:00:40.114Z,4992
2016-09-10T10:01:39.419Z,4976
2016-09-10T10:02:39.590Z,4960
2016-09-10T10:03:39.684Z,4944
2016-09-10T10:04:39.301Z,4936
2016-09-10T10:05:39.366Z,4928
2016-09-10T10:06:39.507Z,4936
2016-09-10T10:07:39.576Z,4940
2016-09-10T10:08:39.365Z,4936
2016-09-10T10:09:39.416Z,4920
2016-09-10T10:10:39.813Z,4896
2016-09-10T10:11:39.343Z,4872
2016-09-10T10:12:39.762Z,4832
2016-09-10T10:13:39.875Z,4812
2016-09-10T10:14:40.216Z,4808
2016-09-10T10:15:39.775Z,4804
2016-09-10T10:16:39.759Z,4824
2016-09-10T10:17:39.652Z,4824
2016-09-10T10:18:39.470Z,4788
2016-09-10T10:19:39.388Z,4752
2016-09-10T10:20:39.356Z,4716
2016-09-10T10:21:39.396Z,4700
2016-09-10T10:22:39.748Z,4672
2016-09-10T10:23:39.596Z,4660
2016-09-10T10:24:41.899Z,4652
2016-09-10T10:25:39.386Z,4648
2016-09-10T10:26:39.723Z,4640
2016-09-10T10:27:39.611Z,4660
2016-09-10T10:28:39.601Z,4692
2016-09-10T10:29:39.630Z,4704
2016-09-10T10:30:39.656Z,4724
2016-09-10T10:31:39.606Z,4720
2016-09-10T10:32:39.388Z,4708
2016-09-10T10:33:39.466Z,4696
2016-09-10T10:34:39.373Z,4700
2016-09-10T10:35:39.878Z,4692
2016-09-10T10:36:39.814Z,4696
2016-09-10T10:37:39.444Z,4688
2016-09-10T10:38:39.392Z,4660
2016-09-10T10:39:39.439Z,4660
2016-09-10T10:40:39.350Z,4668
2016-09-10T10:41:39.403Z,4656
2016-09-10T10:42:39.528Z,4644
2016-09-10T10:43:39.493Z,4640
2016-09-10T10:44:39.354Z,4636
2016-09-10T10:45:39.398Z,4636
2016-09-10T10:46:39.482Z,4672
2016-09-10T10:47:39.405Z,4704
2016-09-10T10:48:39.408Z,4712
2016-09-10T10:49:39.474Z,4700
2016-09-10T10:50:39.395Z,4648
2016-09-10T10:51:39.365Z,4608
2016-09-10T10:52:39.375Z,4576
2016-09-10T10:53:39.466Z,4536
2016-09-10T10:54:39.597Z,4468
2016-09-10T10:55:39.574Z,4420
2016-09-10T10:56:39.621Z,4396
2016-09-10T10:57:39.448Z,4384
2016-09-10T10:58:39.659Z,4352
2016-09-10T10:59:39.415Z,4324
2016-09-10T11:00:39.664Z,4284
2016-09-10T11:01:39.376Z,4256
2016-09-10T11:02:39.408Z,4252
2016-09-10T11:03:39.699Z,4272
2016-09-10T11:04:39.679Z,4276
2016-09-10T11:05:39.506Z,4284
2016-09-10T11:06:39.650Z,4332
2016-09-10T11:07:39.536Z,4372
2016-09-10T11:08:39.471Z,4404
2016-09-10T11:09:39.522Z,4416
2016-09-10T11:10:39.890Z,4448
2016-09-10T11:11:39.397Z,4480
2016-09-10T11:12:39.778Z,4492
2016-09-10T11:13:39.710Z,4496
2016-09-10T11:14:39.670Z,4512
2016-09-10T11:15:39.447Z,4540
2016-09-10T11:16:39.544Z,4528
2016-09-10T11:17:39.475Z,4500
2016-09-10T11:18:39.440Z,4472
2016-09-10T11:19:39.728Z,4464
2016-09-10T11:20:39.766Z,4476
2016-09-10T11:21:39.456Z,4512
2016-09-10T11:22:39.484Z,4540
2016-09-10T11:23:39.472Z,4540
2016-09-10T11:24:39.547Z,4516
2016-09-10T11:25:39.399Z,4496
2016-09-10T11:26:39.423Z,4492
2016-09-10T11:27:39.475Z,4540
2016-09-10T11:28:39.704Z,4528
2016-09-10T11:29:40.550Z,4524
2016-09-10T11:30:39.413Z,4540
2016-09-10T11:31:40.157Z,4568
2016-09-10T11:32:39.887Z,4596
2016-09-10T11:33:40.474Z,4600
2016-09-10T11:34:39.707Z,4632
2016-09-10T11:35:39.534Z,4672
2016-09-10T11:36:39.756Z,4728
2016-09-10T11:37:39.836Z,4708
2016-09-10T11:38:41.036Z,4636
2016-09-10T11:39:39.549Z,4600
2016-09-10T11:40:39.935Z,4572
2016-09-10T11:41:39.578Z,4540
2016-09-10T11:42:39.483Z,4524
2016-09-10T11:43:39.501Z,4504
2016-09-10T11:44:39.503Z,4484
2016-09-10T11:45:39.751Z,4476
2016-09-10T11:46:39.466Z,4492
2016-09-10T11:47:39.756Z,4476
2016-09-10T11:48:39.387Z,4412
2016-09-10T11:49:39.443Z,4384
2016-09-10T11:50:39.514Z,4344
2016-09-10T11:51:39.479Z,4332
2016-09-10T11:52:39.415Z,4348
2016-09-10T11:53:39.702Z,4396
2016-09-10T11:54:39.409Z,4436
2016-09-10T11:55:39.546Z,4476
2016-09-10T11:56:39.785Z,4556
2016-09-10T11:57:39.845Z,4580
2016-09-10T11:58:39.523Z,4572
2016-09-10T11:59:39.749Z,4584
2016-09-10T12:00:39.514Z,4588
2016-09-10T12:01:39.425Z,4524
2016-09-10T12:02:40.379Z,4464
2016-09-10T12:03:39.535Z,4428
2016-09-10T12:04:40.109Z,4364
2016-09-10T12:05:41.095Z,4380
2016-09-10T12:06:39.584Z,4412
2016-09-10T12:07:39.412Z,4452
2016-09-10T12:08:39.581Z,4468
2016-09-10T12:09:39.481Z,4460
2016-09-10T12:10:39.511Z,4448
2016-09-10T12:11:39.513Z,4488
2016-09-10T12:12:39.446Z,4496
2016-09-10T12:13:39.525Z,4524
2016-09-10T12:14:39.464Z,4540
2016-09-10T12:15:39.735Z,4504
2016-09-10T12:16:42.444Z,4504
2016-09-10T12:17:39.450Z,4480
2016-09-10T12:18:39.762Z,4468
2016-09-10T12:19:40.222Z,4472
2016-09-10T12:20:39.517Z,4480
2016-09-10T12:21:39.521Z,4480
2016-09-10T12:22:39.493Z,4452
2016-09-10T12:23:39.540Z,4432
2016-09-10T12:24:39.475Z,4424
2016-09-10T12:25:39.566Z,4388
2016-09-10T12:26:40.560Z,4344
2016-09-10T12:27:40.036Z,4332
2016-09-10T12:28:39.514Z,4344
2016-09-10T12:29:39.564Z,4332
2016-09-10T12:30:39.665Z,4296
2016-09-10T12:31:40.168Z,4280
2016-09-10T12:32:39.460Z,4280
2016-09-10T12:33:40.945Z,4292
2016-09-10T12:34:39.767Z,4328
2016-09-10T12:35:39.513Z,4348
2016-09-10T12:36:39.540Z,4372
2016-09-10T12:37:39.432Z,4384
2016-09-10T12:38:39.501Z,4396
2016-09-10T12:39:39.413Z,4424
2016-09-10T12:40:41.170Z,4464
2016-09-10T12:41:40.204Z,4456
2016-09-10T12:42:39.635Z,4444
2016-09-10T12:43:39.491Z,4440
2016-09-10T12:44:39.551Z,4432
2016-09-10T12:45:39.882Z,4420
2016-09-10T12:46:40.924Z,4428
2016-09-10T12:47:39.893Z,4444
2016-09-10T12:48:39.700Z,4436
2016-09-10T12:49:39.497Z,4420
2016-09-10T12:50:39.628Z,4420
2016-09-10T12:51:39.496Z,4424
2016-09-10T12:52:39.583Z,4412
2016-09-10T12:53:40.897Z,4424
2016-09-10T12:54:39.535Z,4432
2016-09-10T12:55:39.560Z,4436
2016-09-10T12:56:39.512Z,4432
2016-09-10T12:57:39.567Z,4424
2016-09-10T12:58:39.507Z,4408
2016-09-10T12:59:39.597Z,4412
2016-09-10T13:00:39.507Z,4436
2016-09-10T13:01:39.861Z,4472
2016-09-10T13:02:39.746Z,4472
2016-09-10T13:03:39.533Z,4472
2016-09-10T13:04:39.932Z,4468
2016-09-10T13:05:39.545Z,4444
2016-09-10T13:06:39.470Z,4428
2016-09-10T13:07:39.496Z,4412
2016-09-10T13:08:39.602Z,4376
2016-09-10T13:09:39.639Z,4344
2016-09-10T13:10:39.856Z,4348
2016-09-10T13:11:39.469Z,4348
2016-09-10T13:12:39.839Z,4328
2016-09-10T13:13:39.897Z,4340
2016-09-10T13:14:39.673Z,4352
2016-09-10T13:15:39.569Z,4344
2016-09-10T13:16:39.720Z,4332
2016-09-10T13:17:39.543Z,4320
2016-09-10T13:18:39.496Z,4320
2016-09-10T13:19:39.527Z,4316
2016-09-10T13:20:39.504Z,4324
2016-09-10T13:21:39.534Z,4320
2016-09-10T13:22:39.592Z,4300
2016-09-10T13:23:39.599Z,4308
2016-09-10T13:24:39.872Z,4332
2016-09-10T13:25:39.538Z,4348
2016-09-10T13:26:39.485Z,4332
2016-09-10T13:27:39.628Z,4316
2016-09-10T13:28:39.683Z,4304
2016-09-10T13:29:39.848Z,4272
2016-09-10T13:30:39.641Z,4236
2016-09-10T13:31:39.676Z,4188
2016-09-10T13:32:40.227Z,4156
2016-09-10T13:33:39.605Z,4148
2016-09-10T13:34:39.593Z,4164
2016-09-10T13:35:39.828Z,4180
2016-09-10T13:36:39.586Z,4188
2016-09-10T13:37:39.581Z,4196
2016-09-10T13:38:39.567Z,4196
2016-09-10T13:39:39.554Z,4192
2016-09-10T13:40:39.969Z,4172
2016-09-10T13:41:39.569Z,4124
2016-09-10T13:42:39.516Z,4088
2016-09-10T13:43:39.903Z,4044
2016-09-10T13:44:39.558Z,4000
2016-09-10T13:45:39.694Z,3984
2016-09-10T13:46:39.630Z,3968
2016-09-10T13:47:39.858Z,3960
2016-09-10T13:48:40.066Z,3972
2016-09-10T13:49:39.514Z,3968
2016-09-10T13:50:39.547Z,3956